createdAt,value
2023-02-16T00:01:54.324Z,228.43
2023-02-16T00:04:25.706Z,96.17
2023-02-16T00:06:55.191Z,99.60
2023-02-16T00:09:25.094Z,282.17
2023-02-16T00:12:11.957Z,136.00
2023-02-16T00:14:41.471Z,182.50
2023-02-16T00:17:12.827Z,229.23
2023-02-16T00:19:45.208Z,106.63
2023-02-16T00:22:13.235Z,71.10
2023-02-16T00:24:41.172Z,90.77
2023-02-16T00:27:18.438Z,196.60
2023-02-16T00:29:47.783Z,105.27
2023-02-16T00:32:15.897Z,72.50
2023-02-16T00:34:44.524Z,97.40
2023-02-16T00:37:14.799Z,168.37
2023-02-16T00:39:45.018Z,131.30
2023-02-16T00:42:19.208Z,134.30
2023-02-16T00:44:50.626Z,136.23
2023-02-16T00:47:22.264Z,177.57
2023-02-16T00:49:53.285Z,123.80
2023-02-16T00:52:36.044Z,58.13
2023-02-16T00:55:06.791Z,116.40
2023-02-16T00:57:38.973Z,133.60
2023-02-16T01:00:18.760Z,81.40
2023-02-16T01:02:49.356Z,91.40
2023-02-16T01:05:18.005Z,60.77
2023-02-16T01:08:04.047Z,114.20
2023-02-16T01:11:05.928Z,81.40
2023-02-16T01:13:39.236Z,60.80
2023-02-16T01:16:15.014Z,47.80
2023-02-16T01:18:43.098Z,70.67
2023-02-16T01:21:11.093Z,126.47
2023-02-16T01:23:40.227Z,160.90
2023-02-16T01:26:14.031Z,85.37
2023-02-16T01:28:42.103Z,91.10
2023-02-16T01:31:13.016Z,145.63
2023-02-16T01:33:41.545Z,125.20
2023-02-16T01:36:24.069Z,142.50
2023-02-16T01:38:52.039Z,140.03
2023-02-16T01:41:30.757Z,174.53
2023-02-16T01:44:04.668Z,430.47
2023-02-16T01:46:44.538Z,251.57
2023-02-16T01:49:14.736Z,322.87
2023-02-16T01:51:54.656Z,398.63
2023-02-16T01:54:36.208Z,246.10
2023-02-16T01:57:13.175Z,263.77
2023-02-16T02:00:10.597Z,199.13
2023-02-16T02:02:43.189Z,399.47
2023-02-16T02:05:37.942Z,445.30
2023-02-16T02:08:18.362Z,250.30
2023-02-16T02:10:59.097Z,244.10
2023-02-16T02:13:34.112Z,91.10
2023-02-16T02:16:03.228Z,297.00
2023-02-16T02:18:32.602Z,139.40
2023-02-16T02:21:40.451Z,159.43
2023-02-16T02:24:41.623Z,120.87
2023-02-16T02:27:22.168Z,96.97
2023-02-16T02:30:05.074Z,135.40
2023-02-16T02:32:51.559Z,352.80
2023-02-16T02:35:44.904Z,84.40
2023-02-16T02:38:24.990Z,148.83
2023-02-16T02:41:01.309Z,46.63
2023-02-16T02:43:38.068Z,192.87
2023-02-16T02:46:12.522Z,226.30
2023-02-16T02:48:40.660Z,67.13
2023-02-16T02:51:33.779Z,245.60
2023-02-16T02:54:23.887Z,178.13
2023-02-16T02:57:14.805Z,118.80
2023-02-16T03:00:06.536Z,231.07
2023-02-16T03:02:36.960Z,84.60
2023-02-16T03:05:08.502Z,134.37
2023-02-16T03:07:47.752Z,194.07
2023-02-16T03:10:33.655Z,97.13
2023-02-16T03:13:05.034Z,88.67
2023-02-16T03:15:37.607Z,170.70
2023-02-16T03:18:26.045Z,179.70
2023-02-16T03:21:12.344Z,110.33
2023-02-16T03:24:00.386Z,92.20
2023-02-16T03:26:47.132Z,207.00
2023-02-16T03:29:21.906Z,57.83
2023-02-16T03:31:53.091Z,54.93
2023-02-16T03:34:22.895Z,87.70
2023-02-16T03:36:58.342Z,84.67
2023-02-16T03:39:27.375Z,92.13
2023-02-16T03:41:57.526Z,94.57
2023-02-16T03:44:26.173Z,207.33
2023-02-16T03:46:55.552Z,261.00
2023-02-16T03:49:23.606Z,117.37
2023-02-16T03:51:51.524Z,90.43
2023-02-16T03:54:19.502Z,79.57
2023-02-16T03:56:47.482Z,133.07
2023-02-16T03:59:15.458Z,308.47
2023-02-16T04:01:43.505Z,60.27
2023-02-16T04:04:14.688Z,177.17
2023-02-16T04:06:42.705Z,96.47
2023-02-16T04:09:10.962Z,67.43
2023-02-16T04:11:56.370Z,55.80
2023-02-16T04:14:24.446Z,137.33
2023-02-16T04:16:52.591Z,144.10
2023-02-16T04:19:24.038Z,141.17
2023-02-16T04:21:53.441Z,133.37
2023-02-16T04:24:21.527Z,185.87
2023-02-16T04:26:49.528Z,141.03
2023-02-16T04:29:17.572Z,138.03
2023-02-16T04:31:45.684Z,164.23
2023-02-16T04:34:13.696Z,99.63
2023-02-16T04:36:43.068Z,104.40
2023-02-16T04:39:11.064Z,111.83
2023-02-16T04:41:39.012Z,93.10
2023-02-16T04:44:07.621Z,75.80
2023-02-16T04:46:35.615Z,28.37
2023-02-16T04:49:03.697Z,137.47
2023-02-16T04:51:31.728Z,56.37
2023-02-16T04:54:01.004Z,132.67
2023-02-16T04:56:29.253Z,216.33
2023-02-16T04:58:57.682Z,84.57
2023-02-16T05:01:28.389Z,62.23
2023-02-16T05:03:56.645Z,46.40
2023-02-16T05:06:24.607Z,157.20
2023-02-16T05:08:52.619Z,72.60
2023-02-16T05:11:39.271Z,71.17
2023-02-16T05:14:24.757Z,39.60
2023-02-16T05:16:53.995Z,133.27
2023-02-16T05:19:22.014Z,79.20
2023-02-16T05:21:49.986Z,188.40
2023-02-16T05:24:17.956Z,210.23
2023-02-16T05:26:47.248Z,84.57
2023-02-16T05:29:17.792Z,79.47
2023-02-16T05:31:45.979Z,70.87
2023-02-16T05:34:14.146Z,115.83
2023-02-16T05:36:42.104Z,75.67
2023-02-16T05:39:10.394Z,37.07
2023-02-16T05:41:38.370Z,128.20
2023-02-16T05:44:09.308Z,126.53
2023-02-16T05:46:40.726Z,104.63
2023-02-16T05:49:09.812Z,75.07
2023-02-16T05:51:38.670Z,118.23
2023-02-16T05:54:07.265Z,74.17
2023-02-16T05:56:35.481Z,67.97
2023-02-16T05:59:03.469Z,62.87
2023-02-16T06:01:32.818Z,55.73
2023-02-16T06:04:00.837Z,297.53
2023-02-16T06:06:28.804Z,93.73
2023-02-16T06:08:56.827Z,249.03
2023-02-16T06:11:38.767Z,534.63
2023-02-16T06:14:09.377Z,166.60
2023-02-16T06:16:42.146Z,188.90
2023-02-16T06:19:10.545Z,170.90
2023-02-16T06:21:40.372Z,76.73
2023-02-16T06:24:10.811Z,177.13
2023-02-16T06:26:38.829Z,92.60
2023-02-16T06:29:07.533Z,63.87
2023-02-16T06:31:36.838Z,130.80
2023-02-16T06:34:07.141Z,336.80
2023-02-16T06:36:35.674Z,203.87
2023-02-16T06:39:04.562Z,250.00
2023-02-16T06:41:35.472Z,113.87
2023-02-16T06:44:06.850Z,72.57
2023-02-16T06:46:35.139Z,183.47
2023-02-16T06:49:03.302Z,95.20
2023-02-16T06:51:33.041Z,166.13
2023-02-16T06:54:01.100Z,32.67
2023-02-16T06:56:29.102Z,303.03
2023-02-16T06:58:57.216Z,129.80
2023-02-16T07:01:25.887Z,214.63
2023-02-16T07:03:56.336Z,38.37
2023-02-16T07:06:26.076Z,208.40
2023-02-16T07:08:55.998Z,135.77
2023-02-16T07:11:24.433Z,82.27
2023-02-16T07:13:52.570Z,190.00
2023-02-16T07:16:21.023Z,44.03
2023-02-16T07:18:49.161Z,245.87
2023-02-16T07:21:17.294Z,55.23
2023-02-16T07:23:45.698Z,54.80
2023-02-16T07:26:15.161Z,107.83
2023-02-16T07:28:43.239Z,151.47
2023-02-16T07:31:13.536Z,65.03
2023-02-16T07:33:41.724Z,41.47
2023-02-16T07:36:11.751Z,143.30
2023-02-16T07:38:41.837Z,105.83
2023-02-16T07:41:11.201Z,70.83
2023-02-16T07:43:42.708Z,172.90
2023-02-16T07:46:11.116Z,169.07
2023-02-16T07:48:45.184Z,97.40
2023-02-16T07:51:26.111Z,84.70
2023-02-16T07:53:54.644Z,149.27
2023-02-16T07:56:24.849Z,72.27
2023-02-16T07:58:55.725Z,115.77
2023-02-16T08:01:24.667Z,79.17
2023-02-16T08:03:53.282Z,231.57
2023-02-16T08:06:21.593Z,179.20
2023-02-16T08:08:50.037Z,47.70
2023-02-16T08:11:21.446Z,43.60
2023-02-16T08:13:50.255Z,74.17
2023-02-16T08:16:22.075Z,49.37
2023-02-16T08:18:50.739Z,47.70
2023-02-16T08:21:21.998Z,109.30
2023-02-16T08:23:56.708Z,64.30
2023-02-16T08:26:26.943Z,104.27
2023-02-16T08:28:56.439Z,78.57
2023-02-16T08:31:34.969Z,78.80
2023-02-16T08:34:04.242Z,103.93
2023-02-16T08:36:34.973Z,134.07
2023-02-16T08:39:07.092Z,66.23
2023-02-16T08:41:38.567Z,60.60
2023-02-16T08:44:08.954Z,62.53
2023-02-16T08:46:41.480Z,113.20
2023-02-16T08:49:11.275Z,52.70
2023-02-16T08:51:43.336Z,107.87
2023-02-16T08:54:18.043Z,75.73
2023-02-16T08:56:48.078Z,104.97
2023-02-16T08:59:18.281Z,44.67
2023-02-16T09:01:48.247Z,56.43
2023-02-16T09:04:19.110Z,73.43
2023-02-16T09:06:48.998Z,43.13
2023-02-16T09:09:17.261Z,37.63
2023-02-16T09:11:45.906Z,38.10
2023-02-16T09:14:13.961Z,41.53
2023-02-16T09:16:45.555Z,42.93
2023-02-16T09:19:17.750Z,33.50
2023-02-16T09:21:47.023Z,28.87
2023-02-16T09:24:16.007Z,26.77
2023-02-16T09:26:44.640Z,39.20
2023-02-16T09:29:14.678Z,42.30
2023-02-16T09:31:44.301Z,33.33
2023-02-16T09:34:20.158Z,33.20
2023-02-16T09:36:48.720Z,37.43
2023-02-16T09:39:17.671Z,39.87
2023-02-16T09:42:19.796Z,34.17
2023-02-16T09:44:56.192Z,62.93
2023-02-16T09:47:31.031Z,42.33
2023-02-16T09:50:04.004Z,47.40
2023-02-16T09:52:40.290Z,43.67
2023-02-16T09:55:13.159Z,32.63
2023-02-16T09:57:56.793Z,67.87
2023-02-16T10:00:42.094Z,39.63
2023-02-16T10:03:28.831Z,43.10
2023-02-16T10:06:10.572Z,36.03
2023-02-16T10:08:43.100Z,40.40
2023-02-16T10:11:30.111Z,47.57
2023-02-16T10:14:02.870Z,39.17
2023-02-16T10:16:38.873Z,34.27
2023-02-16T10:19:19.513Z,40.23
2023-02-16T10:21:56.368Z,34.20
2023-02-16T10:24:27.168Z,62.57
2023-02-16T10:27:03.435Z,48.60
2023-02-16T10:29:31.458Z,40.00
2023-02-16T10:32:13.485Z,50.50
2023-02-16T10:34:50.214Z,57.37
2023-02-16T10:37:38.739Z,52.60
2023-02-16T10:40:34.440Z,57.33
2023-02-16T10:43:08.391Z,54.60
2023-02-16T10:45:46.416Z,34.83
2023-02-16T10:48:15.744Z,46.53
2023-02-16T10:50:48.961Z,40.53
2023-02-16T10:53:22.967Z,38.00
2023-02-16T10:55:51.066Z,40.60
2023-02-16T10:58:23.918Z,39.67
2023-02-16T11:00:58.340Z,35.80
2023-02-16T11:03:33.326Z,43.93
2023-02-16T11:06:15.769Z,49.17
2023-02-16T11:08:51.168Z,36.43
2023-02-16T11:11:22.708Z,41.57
2023-02-16T11:13:59.234Z,44.77
2023-02-16T11:16:29.980Z,37.83
2023-02-16T11:19:01.340Z,56.80
2023-02-16T11:21:47.294Z,38.43
2023-02-16T11:24:28.969Z,33.73
2023-02-16T11:27:06.933Z,38.03
2023-02-16T11:29:35.430Z,38.17
2023-02-16T11:32:08.666Z,33.93
2023-02-16T11:34:41.241Z,40.23
2023-02-16T11:37:20.053Z,38.90
2023-02-16T11:39:56.151Z,41.23
2023-02-16T11:42:32.682Z,37.43
2023-02-16T11:45:03.255Z,42.67
2023-02-16T11:47:34.282Z,42.37
2023-02-16T11:50:20.201Z,35.70
2023-02-16T11:52:49.689Z,32.97
2023-02-16T11:55:27.929Z,42.70
2023-02-16T11:57:57.005Z,38.43
2023-02-16T12:00:27.469Z,43.57
2023-02-16T12:03:21.533Z,44.20
2023-02-16T12:06:06.198Z,36.00
2023-02-16T12:08:51.360Z,44.83
2023-02-16T12:11:34.091Z,37.40
2023-02-16T12:14:23.065Z,56.57
2023-02-16T12:17:00.238Z,35.87
2023-02-16T12:19:41.718Z,30.80
2023-02-16T12:22:27.733Z,41.30
2023-02-16T12:25:14.066Z,39.23
2023-02-16T12:27:51.519Z,45.93
2023-02-16T12:30:33.853Z,45.57
2023-02-16T12:33:21.956Z,46.17
2023-02-16T12:36:16.428Z,47.13
2023-02-16T12:38:59.504Z,32.57
2023-02-16T12:41:42.387Z,37.57
2023-02-16T12:44:18.639Z,40.47
2023-02-16T12:46:49.855Z,38.53
2023-02-16T12:49:25.341Z,34.43
2023-02-16T12:51:59.356Z,36.87
2023-02-16T12:54:32.080Z,34.47
2023-02-16T12:57:05.598Z,44.33
2023-02-16T12:59:40.669Z,44.83
2023-02-16T13:02:19.443Z,53.03
2023-02-16T13:04:51.999Z,42.07
2023-02-16T13:07:28.616Z,37.27
2023-02-16T13:10:03.224Z,40.13
2023-02-16T13:12:36.797Z,38.47
2023-02-16T13:15:17.062Z,44.30
2023-02-16T13:17:50.584Z,43.77
2023-02-16T13:20:21.610Z,38.60
2023-02-16T13:23:24.423Z,35.07
2023-02-16T13:26:36.870Z,33.00
2023-02-16T13:29:40.074Z,33.23
2023-02-16T13:32:29.082Z,31.67
2023-02-16T13:35:17.475Z,43.53
2023-02-16T13:38:12.185Z,36.23
2023-02-16T13:41:13.136Z,36.27
2023-02-16T13:43:45.033Z,36.27
2023-02-16T13:46:19.636Z,36.63
2023-02-16T13:48:53.357Z,37.77
2023-02-16T13:51:24.505Z,48.37
2023-02-16T13:53:57.801Z,40.67
2023-02-16T13:56:36.877Z,34.10
2023-02-16T14:00:00.564Z,36.73
2023-02-16T14:02:58.552Z,40.43
2023-02-16T14:05:38.152Z,37.93
2023-02-16T14:08:25.541Z,41.27
2023-02-16T14:11:11.938Z,37.90
2023-02-16T14:13:51.568Z,37.00
2023-02-16T14:16:32.541Z,42.33
2023-02-16T14:19:04.587Z,36.17
2023-02-16T14:21:43.996Z,36.53
2023-02-16T14:24:23.370Z,39.30
2023-02-16T14:26:59.270Z,43.70
2023-02-16T14:29:31.814Z,39.63
2023-02-16T14:32:06.907Z,41.47
2023-02-16T14:34:41.217Z,38.63
2023-02-16T14:37:35.529Z,42.63
2023-02-16T14:40:31.408Z,44.67
2023-02-16T14:43:05.976Z,36.53
2023-02-16T14:46:27.481Z,46.30
2023-02-16T14:49:49.599Z,52.23
2023-02-16T14:52:48.367Z,41.20
2023-02-16T14:55:46.952Z,45.30
2023-02-16T14:58:28.797Z,42.80
2023-02-16T15:01:05.977Z,35.50
2023-02-16T15:03:45.290Z,41.73
2023-02-16T15:06:24.945Z,47.40
2023-02-16T15:08:59.031Z,43.30
2023-02-16T15:11:33.912Z,67.33
2023-02-16T15:14:10.167Z,50.50
2023-02-16T15:16:41.983Z,46.00
2023-02-16T15:19:17.820Z,48.90
2023-02-16T15:21:45.943Z,52.13
2023-02-16T15:24:25.538Z,44.67
2023-02-16T15:27:01.415Z,51.10
2023-02-16T15:29:31.219Z,57.27
2023-02-16T15:32:01.050Z,47.20
2023-02-16T15:34:34.714Z,49.53
2023-02-16T15:37:22.139Z,45.83
2023-02-16T15:40:08.675Z,54.30
2023-02-16T15:42:43.327Z,44.00
2023-02-16T15:45:35.267Z,53.20
2023-02-16T15:48:17.381Z,54.10
2023-02-16T15:50:47.108Z,50.67
2023-02-16T15:53:16.504Z,55.47
2023-02-16T15:55:48.002Z,58.47
2023-02-16T15:58:16.877Z,54.70
2023-02-16T16:00:47.704Z,46.53
2023-02-16T16:03:18.201Z,56.50
2023-02-16T16:06:01.464Z,56.83
2023-02-16T16:08:31.344Z,55.93
2023-02-16T16:11:01.095Z,54.90
2023-02-16T16:13:31.233Z,54.03
2023-02-16T16:16:04.514Z,54.77
2023-02-16T16:18:39.952Z,72.50
2023-02-16T16:21:25.762Z,59.27
2023-02-16T16:24:01.004Z,52.30
2023-02-16T16:26:37.146Z,52.47
2023-02-16T16:29:05.535Z,49.37
2023-02-16T16:31:41.857Z,48.83
2023-02-16T16:34:32.284Z,138.47
2023-02-16T16:37:02.701Z,73.43
2023-02-16T16:39:32.694Z,55.17
2023-02-16T16:42:24.964Z,58.17
2023-02-16T16:45:07.899Z,47.03
2023-02-16T16:47:39.012Z,50.37
2023-02-16T16:50:31.162Z,46.70
2023-02-16T16:52:59.217Z,48.73
2023-02-16T16:55:31.691Z,38.33
2023-02-16T16:58:04.200Z,45.00
2023-02-16T17:00:36.420Z,41.87
2023-02-16T17:03:07.038Z,36.30
2023-02-16T17:05:38.211Z,46.93
2023-02-16T17:08:06.575Z,42.03
2023-02-16T17:10:36.352Z,36.90
2023-02-16T17:13:05.950Z,37.43
2023-02-16T17:15:43.315Z,36.37
2023-02-16T17:18:17.062Z,46.40
2023-02-16T17:20:46.128Z,33.10
2023-02-16T17:23:16.800Z,32.00
2023-02-16T17:25:45.425Z,37.10
2023-02-16T17:28:17.375Z,47.13
2023-02-16T17:30:46.141Z,42.70
2023-02-16T17:33:14.156Z,43.50
2023-02-16T17:35:44.330Z,41.87
2023-02-16T17:38:18.418Z,38.50
2023-02-16T17:40:48.663Z,35.80
2023-02-16T17:43:20.039Z,59.80
2023-02-16T17:45:49.352Z,32.57
2023-02-16T17:48:20.805Z,41.20
2023-02-16T17:50:51.145Z,36.30
2023-02-16T17:53:23.107Z,35.13
2023-02-16T17:55:53.567Z,37.87
2023-02-16T17:58:25.004Z,32.57
2023-02-16T18:00:53.841Z,34.23
2023-02-16T18:03:22.857Z,39.60
2023-02-16T18:05:51.463Z,35.23
2023-02-16T18:08:19.560Z,34.60
2023-02-16T18:10:50.136Z,26.80
2023-02-16T18:13:18.896Z,41.80
2023-02-16T18:15:50.501Z,31.50
2023-02-16T18:18:21.550Z,33.17
2023-02-16T18:20:49.599Z,28.90
2023-02-16T18:23:17.731Z,36.30
2023-02-16T18:25:45.796Z,36.43
2023-02-16T18:28:18.276Z,31.10
2023-02-16T18:30:49.182Z,32.07
2023-02-16T18:33:17.531Z,36.17
2023-02-16T18:35:45.625Z,28.00
2023-02-16T18:38:13.791Z,30.57
2023-02-16T18:40:43.419Z,28.57
2023-02-16T18:43:11.834Z,37.43
2023-02-16T18:45:40.693Z,31.40
2023-02-16T18:48:10.106Z,27.57
2023-02-16T18:50:38.612Z,34.27
2023-02-16T18:53:07.127Z,28.03
2023-02-16T18:55:35.649Z,28.53
2023-02-16T18:58:07.935Z,24.77
2023-02-16T19:00:36.748Z,35.47
2023-02-16T19:03:04.978Z,40.83
2023-02-16T19:05:34.927Z,30.20
2023-02-16T19:08:03.492Z,39.53
2023-02-16T19:10:31.830Z,39.10
2023-02-16T19:13:01.924Z,25.67
2023-02-16T19:15:30.360Z,29.73
2023-02-16T19:17:58.492Z,33.47
2023-02-16T19:20:28.860Z,32.43
2023-02-16T19:22:58.266Z,33.13
2023-02-16T19:25:27.102Z,37.43
2023-02-16T19:27:55.179Z,29.73
2023-02-16T19:30:24.214Z,33.13
2023-02-16T19:32:52.400Z,35.00
2023-02-16T19:35:20.670Z,28.57
2023-02-16T19:37:48.729Z,32.90
2023-02-16T19:40:18.714Z,39.77
2023-02-16T19:42:46.793Z,32.03
2023-02-16T19:45:14.776Z,30.60
2023-02-16T19:47:42.861Z,35.30
2023-02-16T19:50:11.534Z,27.37
2023-02-16T19:52:39.645Z,29.70
2023-02-16T19:55:09.544Z,33.63
2023-02-16T19:57:40.508Z,33.80
2023-02-16T20:00:13.376Z,25.40
2023-02-16T20:02:41.455Z,30.50
2023-02-16T20:05:11.137Z,26.80
2023-02-16T20:07:39.236Z,29.43
2023-02-16T20:10:08.553Z,27.30
2023-02-16T20:12:36.663Z,34.33
2023-02-16T20:15:06.773Z,25.17
2023-02-16T20:17:34.777Z,25.17
2023-02-16T20:20:02.831Z,28.97
2023-02-16T20:22:30.866Z,31.23
2023-02-16T20:24:58.869Z,26.93
2023-02-16T20:27:29.293Z,27.70
2023-02-16T20:29:57.783Z,30.43
2023-02-16T20:32:28.218Z,27.40
2023-02-16T20:34:56.376Z,26.67
2023-02-16T20:37:24.608Z,33.30
2023-02-16T20:39:52.830Z,31.03
2023-02-16T20:42:21.022Z,30.30
2023-02-16T20:44:49.076Z,30.40
2023-02-16T20:47:20.256Z,22.90
2023-02-16T20:49:51.587Z,22.47
2023-02-16T20:52:19.886Z,22.27
2023-02-16T20:54:48.154Z,26.07
2023-02-16T20:57:26.487Z,26.20
2023-02-16T20:59:55.610Z,26.43
2023-02-16T21:02:23.658Z,25.10
2023-02-16T21:04:53.079Z,29.27
2023-02-16T21:07:21.183Z,45.57
2023-02-16T21:09:49.678Z,81.93
2023-02-16T21:12:17.696Z,36.13
2023-02-16T21:14:45.659Z,30.90
2023-02-16T21:17:13.686Z,28.87
2023-02-16T21:19:41.757Z,33.20
2023-02-16T21:22:11.221Z,31.57
2023-02-16T21:24:40.726Z,33.50
2023-02-16T21:27:08.895Z,29.33
2023-02-16T21:29:37.199Z,32.70
2023-02-16T21:32:08.595Z,38.73
2023-02-16T21:34:36.936Z,28.03
2023-02-16T21:37:05.094Z,24.30
2023-02-16T21:39:52.072Z,28.57
2023-02-16T21:42:20.109Z,24.20
2023-02-16T21:44:49.966Z,23.97
2023-02-16T21:47:36.828Z,25.10
2023-02-16T21:50:05.060Z,23.67
2023-02-16T21:52:33.088Z,27.30
2023-02-16T21:55:20.191Z,23.30
2023-02-16T21:57:49.325Z,26.90
2023-02-16T22:00:18.208Z,30.43
2023-02-16T22:02:46.175Z,35.87
2023-02-16T22:05:14.262Z,28.33
2023-02-16T22:07:42.257Z,29.37
2023-02-16T22:10:11.854Z,31.73
2023-02-16T22:12:39.892Z,31.43
2023-02-16T22:15:08.467Z,31.87
2023-02-16T22:17:36.538Z,27.13
2023-02-16T22:20:06.296Z,26.80
2023-02-16T22:22:34.367Z,33.70
2023-02-16T22:25:02.381Z,32.37
2023-02-16T22:27:31.727Z,29.00
2023-02-16T22:29:59.779Z,27.40
2023-02-16T22:32:27.991Z,30.73
2023-02-16T22:34:55.956Z,29.77
2023-02-16T22:37:25.004Z,30.03
2023-02-16T22:39:55.139Z,27.70
2023-02-16T22:42:25.977Z,31.07
2023-02-16T22:44:55.346Z,27.30
2023-02-16T22:47:26.400Z,26.30
2023-02-16T22:49:54.427Z,26.47
2023-02-16T22:52:22.384Z,32.70
2023-02-16T22:54:51.638Z,27.60
2023-02-16T22:57:20.036Z,28.67
2023-02-16T22:59:48.031Z,30.00
2023-02-16T23:02:17.377Z,30.37
2023-02-16T23:04:45.443Z,26.80
2023-02-16T23:07:13.444Z,21.77
2023-02-16T23:09:41.461Z,23.13
2023-02-16T23:12:09.627Z,26.97
2023-02-16T23:14:38.556Z,32.03
2023-02-16T23:17:06.606Z,24.00
2023-02-16T23:19:35.938Z,28.50
2023-02-16T23:22:03.968Z,36.00
2023-02-16T23:24:31.938Z,36.13
2023-02-16T23:27:00.443Z,29.37
2023-02-16T23:29:28.802Z,25.20
2023-02-16T23:31:56.814Z,23.93
2023-02-16T23:34:24.892Z,28.73
2023-02-16T23:36:54.197Z,29.10
2023-02-16T23:39:22.228Z,26.37
2023-02-16T23:41:50.213Z,25.53
2023-02-16T23:44:18.213Z,25.33
2023-02-16T23:46:46.208Z,20.77
2023-02-16T23:49:14.373Z,30.63
2023-02-16T23:51:42.378Z,25.33
2023-02-16T23:54:11.800Z,36.23
2023-02-16T23:56:41.224Z,23.00
2023-02-16T23:59:09.257Z,26.60
